Whittier, Alaska
Current Conditions -  °F | °C
As of 8:53 PM on Friday 19 Dec 2014 (Local Time) from PATO Reporting Station
Haze Haze  
Wind Chill: 32°   Ceiling: 100
Heat Index: 32°   Visibility: 1.7mi
Dew Point: 32°   Wind: 0mph
Humidity: 100%   Direction: NA
Pressure: 29.09"   Gusts: NA
Location:  60.77°N, 148.69°W
Report Text: PATO 200553Z AUTO 00000KT 1 3/4SM BR BKN001 OVC060 00/00 A2909 RMK AO2 SLP853 60000 T00000000 10028 20000 58011 TSNO
Loading
Personal Weather Stations






























Interactive Weather Map New forecast layout! Learn more

10-Day Weather Forecast

Advertisements
Track Severe Weather on mobile